Pilot Vessel Akarana — ZMT2938 — position and weather

sailwx.info

Track history (hours):
 
Tides and Currents Weather Stations Pressure Air Temp Water Temp Dewpoint Dewpoint Depression Visibility Wind Speed Wind Dir Waves Ship Positions

Pilot Vessel Akarana

Last reported at 2015-Jan-30 19:32 UTC. Time now 2015-Jan-30 20:09 UTC.
Position S 36°51' E 174°47'.

Length 15 m; draft 1.6 m.

Type: Pilot. MMSI: 512000344.

Date/timePositionNaut miles runAvg speedWind from/ knotsBaromVisibWave heightAir tempDewpointWater temp
2015-Jan-30 19:32S 36°51' E 174°47'1 1.2
2015-Jan-30 18:32S 36°51' E 174°48'3 3.2
2015-Jan-30 17:33S 36°48' E 174°49'3 3.1
2015-Jan-30 16:33S 36°51' E 174°47'0 0.2
2015-Jan-30 15:33S 36°51' E 174°47'0 0.0
2015-Jan-30 12:22S 36°51' E 174°47'0 0.0
2015-Jan-30 11:33S 36°51' E 174°47'5 5.2
2015-Jan-30 10:33S 36°46' E 174°49'2 1.7
2015-Jan-30 09:33S 36°48' E 174°49'3 3.3
2015-Jan-30 08:33S 36°44' E 174°50'7 5.5
2015-Jan-30 07:20S 36°51' E 174°47'0 0.0
2015-Jan-30 05:29S 36°51' E 174°47'0 0.0
2015-Jan-30 03:24S 36°51' E 174°47'5 1.6
2015-Jan-30 00:34S 36°47' E 174°49'2 1.8
2015-Jan-29 23:34S 36°48' E 174°49'3 1.3
2015-Jan-29 21:23S 36°51' E 174°47'3 3.4
2015-Jan-29 20:34S 36°49' E 174°50'4 4.3
2015-Jan-29 19:33S 36°45' E 174°50'6 5.7
2015-Jan-29 18:28S 36°51' E 174°47'0 0.0
2015-Jan-29 17:33S 36°51' E 174°47'4 4.0
2015-Jan-29 16:34S 36°47' E 174°48'4 3.7
2015-Jan-29 15:33S 36°44' E 174°51'7 1.2
2015-Jan-29 09:30S 36°51' E 174°47'1 0.5
2015-Jan-29 06:32S 36°50' E 174°49'2 2.2
2015-Jan-29 05:33S 36°48' E 174°49'3 3.2
2015-Jan-29 04:33S 36°51' E 174°47'0 0.0
2015-Jan-29 03:10S 36°51' E 174°47'0 0.0
2015-Jan-29 02:32S 36°51' E 174°47'0 0.0
2015-Jan-29 01:30S 36°51' E 174°47'0 0.0
2015-Jan-28 20:12S 36°51' E 174°47'3 4.8
2015-Jan-28 19:33S 36°48' E 174°49'2 2.5
2015-Jan-28 18:34S 36°46' E 174°49'9 8.5
2015-Jan-28 17:32S 36°48' E 174°39'7 0.6
2015-Jan-28 06:07S 36°51' E 174°47'3 4.8
2015-Jan-28 05:33S 36°49' E 174°49'3 2.6
2015-Jan-28 04:32S 36°51' E 174°47'0 0.0
2015-Jan-28 03:33S 36°51' E 174°47'0 0.0
2015-Jan-28 02:32S 36°51' E 174°47'0 0.0
2015-Jan-28 01:22S 36°51' E 174°47'1 0.8
2015-Jan-28 00:33S 36°50' E 174°46'1 0.3
2015-Jan-27 22:13S 36°51' E 174°47'1 1.6
2015-Jan-27 21:33S 36°51' E 174°48'4 3.6
2015-Jan-27 20:34S 36°47' E 174°49'4 3.3
2015-Jan-27 19:21S 36°51' E 174°47'0 0.0
2015-Jan-27 18:25S 36°51' E 174°47'0 0.0
2015-Jan-27 16:24S 36°51' E 174°47'0 0.0
2015-Jan-27 15:33S 36°51' E 174°47'5 4.8
2015-Jan-27 14:29S 36°46' E 174°49'5 5.6
2015-Jan-27 13:33S 36°51' E 174°47'0 0.0
2015-Jan-27 12:11S 36°51' E 174°47'4 6.5
2015-Jan-27 11:33S 36°47' E 174°48'4 4.1
2015-Jan-27 10:33S 36°51' E 174°47'0 0.0
2015-Jan-27 09:27S 36°51' E 174°47'0 0.0
2015-Jan-27 08:33S 36°51' E 174°47'0 0.0
2015-Jan-27 07:33S 36°51' E 174°47'0 0.3
2015-Jan-27 06:33S 36°50' E 174°47'0 0.4
2015-Jan-27 05:33S 36°51' E 174°47'0 0.0
2015-Jan-27 04:33S 36°51' E 174°47'0 0.0
2015-Jan-27 02:12S 36°51' E 174°47'0 0.0
2015-Jan-26 20:21S 36°51' E 174°47'7 8.6
2015-Jan-26 19:33S 36°44' E 174°50'3 3.1
2015-Jan-26 18:33S 36°48' E 174°50'4 3.9
2015-Jan-26 17:33S 36°44' E 174°52'7 7.2
2015-Jan-26 16:33S 36°51' E 174°48'1 0.2
2015-Jan-26 09:13S 36°51' E 174°47'4 6.2
2015-Jan-26 08:33S 36°47' E 174°48'2 2.3
2015-Jan-26 07:33S 36°45' E 174°50'6 4.8
2015-Jan-26 06:14S 36°51' E 174°47'5 7.8
2015-Jan-26 05:33S 36°46' E 174°49'5 0.4
2015-Jan-25 16:23S 36°51' E 174°47'0 0.0
2015-Jan-25 15:30S 36°51' E 174°47'5 5.2
2015-Jan-25 14:33S 36°46' E 174°49'5 4.7
2015-Jan-25 13:32S 36°51' E 174°47'0 0.0
2015-Jan-25 12:31S 36°51' E 174°47'0 0.0
2015-Jan-25 11:12S 36°51' E 174°47'0 0.0
2015-Jan-25 10:31S 36°51' E 174°47'0 0.0
2015-Jan-25 09:23S 36°51' E 174°47'0 0.4
2015-Jan-25 08:33S 36°50' E 174°47'0 0.3
2015-Jan-25 07:18S 36°51' E 174°47'3 1.9
2015-Jan-25 05:34S 36°48' E 174°49'3 3.1
2015-Jan-25 04:29S 36°51' E 174°47'0 0.0
2015-Jan-25 03:28S 36°51' E 174°47'0 0.0
2015-Jan-25 02:34S 36°51' E 174°47'0 0.0
2015-Jan-25 01:34S 36°51' E 174°47'0 0.3
2015-Jan-25 00:16S 36°50' E 174°47'0 0.4
2015-Jan-24 23:10S 36°51' E 174°47'0 0.0
2015-Jan-24 22:31S 36°51' E 174°47'0 0.0
2015-Jan-24 21:33S 36°51' E 174°47'0 0.3
2015-Jan-24 20:33S 36°50' E 174°47'4 1.8
2015-Jan-24 18:33S 36°47' E 174°48'4 1.7
2015-Jan-24 16:21S 36°51' E 174°48'1 0.1
2015-Jan-24 08:33S 36°50' E 174°49'5 5.6
2015-Jan-24 07:34S 36°45' E 174°52'6 6.3
2015-Jan-24 06:33S 36°50' E 174°47'0 0.3
2015-Jan-24 05:09S 36°51' E 174°47'3 5.0
2015-Jan-24 04:33S 36°49' E 174°50'3 2.8
2015-Jan-24 03:33S 36°46' E 174°49'5 4.5
2015-Jan-24 02:27S 36°51' E 174°48'6 6.2
2015-Jan-24 01:33S 36°45' E 174°50'6 4.9
2015-Jan-24 00:23S 36°51' E 174°47'0 0.0
2015-Jan-23 23:18S 36°51' E 174°47'1 0.9
2015-Jan-23 22:33S 36°50' E 174°46'1 0.6
2015-Jan-23 21:27S 36°51' E 174°47'0 0.0
2015-Jan-23 18:13S 36°51' E 174°47'3 4.8
2015-Jan-23 17:34S 36°48' E 174°49'1 0.9
2015-Jan-23 16:34S 36°47' E 174°49'4 3.9
2015-Jan-23 15:33S 36°51' E 174°47'1 0.7
2015-Jan-23 13:33S 36°50' E 174°49'1 1.3
2015-Jan-23 12:29S 36°51' E 174°47'0 0.0
2015-Jan-23 11:33S 36°51' E 174°47'0 0.0
2015-Jan-23 10:33S 36°51' E 174°47'0 0.0
2015-Jan-23 09:32S 36°51' E 174°47'0 0.0
2015-Jan-23 08:33S 36°51' E 174°47'3 3.2
2015-Jan-23 07:34S 36°48' E 174°49'3 0.5
2015-Jan-23 01:12S 36°51' E 174°47'0 0.0
2015-Jan-23 00:32S 36°51' E 174°47'0 0.0
2015-Jan-22 23:31S 36°51' E 174°47'0 0.0
2015-Jan-22 22:33S 36°51' E 174°47'0 0.0
2015-Jan-22 21:33S 36°51' E 174°47'2 2.1
2015-Jan-22 20:33S 36°49' E 174°49'2 1.6
2015-Jan-22 19:14S 36°51' E 174°47'0 0.0
2015-Jan-22 18:34S 36°51' E 174°47'0 0.0
2015-Jan-22 17:17S 36°51' E 174°47'1 1.8
2015-Jan-22 16:32S 36°50' E 174°49'6 1.3
2015-Jan-22 11:33S 36°44' E 174°51'7 7.2
2015-Jan-22 10:33S 36°51' E 174°47'5 4.7
2015-Jan-22 09:33S 36°46' E 174°49'5 4.7
2015-Jan-22 08:33S 36°51' E 174°47'0 0.0
2015-Jan-22 07:33S 36°51' E 174°47'0 0.2
2015-Jan-22 06:33S 36°50' E 174°47'2 2.4
2015-Jan-22 05:33S 36°49' E 174°49'3 0.7
2015-Jan-22 02:05S 36°51' E 174°47'3 5.9
2015-Jan-22 01:33S 36°48' E 174°49'3 3.0
2015-Jan-22 00:32S 36°51' E 174°47'0 0.0
2015-Jan-21 23:27S 36°51' E 174°47'1 2.3
2015-Jan-21 22:50S 36°50' E 174°49'123.1
2015-Jan-21 22:46S 36°49' E 174°49'522.8
2015-Jan-21 22:34S 36°44' E 174°50'7 7.2
2015-Jan-21 21:33S 36°51' E 174°47'0 0.0
2015-Jan-21 16:32S 36°51' E 174°47'0 0.0
2015-Jan-21 15:30S 36°51' E 174°47'0 0.0
2015-Jan-21 14:22S 36°51' E 174°47'0 0.0
2015-Jan-21 13:33S 36°51' E 174°47'0 0.0
2015-Jan-21 12:22S 36°51' E 174°47'4 5.2
2015-Jan-21 11:34S 36°47' E 174°49'4 3.6
2015-Jan-21 10:24S 36°51' E 174°47'0 0.0
2015-Jan-21 08:27S 36°51' E 174°47'3 3.6
2015-Jan-21 07:33S 36°48' E 174°49'2 0.2
2015-Jan-20 23:31S 36°50' E 174°49'1 0.9
2015-Jan-20 22:12S 36°51' E 174°48'5 7.6
2015-Jan-20 21:34S 36°46' E 174°49'5 4.6
2015-Jan-20 20:30S 36°51' E 174°47'  
Track history (hours):
 
Tides and Currents Weather Stations Pressure Air Temp Water Temp Dewpoint Dewpoint Depression Visibility Wind Speed Wind Dir Waves Ship Positions

Pilot Vessel Akarana

Last reported at 2015-Jan-30 19:32 UTC. Time now 2015-Jan-30 20:09 UTC.
Position S 36°51' E 174°47'.

Length 15 m; draft 1.6 m.

Type: Pilot. MMSI: 512000344.

Date/timePositionNaut miles runAvg speedWind from/ knotsBaromVisibWave heightAir tempDewpointWater temp
2015-Jan-30 19:32S 36°51' E 174°47'1 1.2
2015-Jan-30 18:32S 36°51' E 174°48'3 3.2
2015-Jan-30 17:33S 36°48' E 174°49'3 3.1
2015-Jan-30 16:33S 36°51' E 174°47'0 0.2
2015-Jan-30 15:33S 36°51' E 174°47'0 0.0
2015-Jan-30 12:22S 36°51' E 174°47'0 0.0
2015-Jan-30 11:33S 36°51' E 174°47'5 5.2
2015-Jan-30 10:33S 36°46' E 174°49'2 1.7
2015-Jan-30 09:33S 36°48' E 174°49'3 3.3
2015-Jan-30 08:33S 36°44' E 174°50'7 5.5
2015-Jan-30 07:20S 36°51' E 174°47'0 0.0
2015-Jan-30 05:29S 36°51' E 174°47'0 0.0
2015-Jan-30 03:24S 36°51' E 174°47'5 1.6
2015-Jan-30 00:34S 36°47' E 174°49'2 1.8
2015-Jan-29 23:34S 36°48' E 174°49'3 1.3
2015-Jan-29 21:23S 36°51' E 174°47'3 3.4
2015-Jan-29 20:34S 36°49' E 174°50'4 4.3
2015-Jan-29 19:33S 36°45' E 174°50'6 5.7
2015-Jan-29 18:28S 36°51' E 174°47'0 0.0
2015-Jan-29 17:33S 36°51' E 174°47'4 4.0
2015-Jan-29 16:34S 36°47' E 174°48'4 3.7
2015-Jan-29 15:33S 36°44' E 174°51'7 1.2
2015-Jan-29 09:30S 36°51' E 174°47'1 0.5
2015-Jan-29 06:32S 36°50' E 174°49'2 2.2
2015-Jan-29 05:33S 36°48' E 174°49'3 3.2
2015-Jan-29 04:33S 36°51' E 174°47'0 0.0
2015-Jan-29 03:10S 36°51' E 174°47'0 0.0
2015-Jan-29 02:32S 36°51' E 174°47'0 0.0
2015-Jan-29 01:30S 36°51' E 174°47'0 0.0
2015-Jan-28 20:12S 36°51' E 174°47'3 4.8
2015-Jan-28 19:33S 36°48' E 174°49'2 2.5
2015-Jan-28 18:34S 36°46' E 174°49'9 8.5
2015-Jan-28 17:32S 36°48' E 174°39'7 0.6
2015-Jan-28 06:07S 36°51' E 174°47'3 4.8
2015-Jan-28 05:33S 36°49' E 174°49'3 2.6
2015-Jan-28 04:32S 36°51' E 174°47'0 0.0
2015-Jan-28 03:33S 36°51' E 174°47'0 0.0
2015-Jan-28 02:32S 36°51' E 174°47'0 0.0
2015-Jan-28 01:22S 36°51' E 174°47'1 0.8
2015-Jan-28 00:33S 36°50' E 174°46'1 0.3
2015-Jan-27 22:13S 36°51' E 174°47'1 1.6
2015-Jan-27 21:33S 36°51' E 174°48'4 3.6
2015-Jan-27 20:34S 36°47' E 174°49'4 3.3
2015-Jan-27 19:21S 36°51' E 174°47'0 0.0
2015-Jan-27 18:25S 36°51' E 174°47'0 0.0
2015-Jan-27 16:24S 36°51' E 174°47'0 0.0
2015-Jan-27 15:33S 36°51' E 174°47'5 4.8
2015-Jan-27 14:29S 36°46' E 174°49'5 5.6
2015-Jan-27 13:33S 36°51' E 174°47'0 0.0
2015-Jan-27 12:11S 36°51' E 174°47'4 6.5
2015-Jan-27 11:33S 36°47' E 174°48'4 4.1
2015-Jan-27 10:33S 36°51' E 174°47'0 0.0
2015-Jan-27 09:27S 36°51' E 174°47'0 0.0
2015-Jan-27 08:33S 36°51' E 174°47'0 0.0
2015-Jan-27 07:33S 36°51' E 174°47'0 0.3
2015-Jan-27 06:33S 36°50' E 174°47'0 0.4
2015-Jan-27 05:33S 36°51' E 174°47'0 0.0
2015-Jan-27 04:33S 36°51' E 174°47'0 0.0
2015-Jan-27 02:12S 36°51' E 174°47'0 0.0
2015-Jan-26 20:21S 36°51' E 174°47'7 8.6
2015-Jan-26 19:33S 36°44' E 174°50'3 3.1
2015-Jan-26 18:33S 36°48' E 174°50'4 3.9
2015-Jan-26 17:33S 36°44' E 174°52'7 7.2
2015-Jan-26 16:33S 36°51' E 174°48'1 0.2
2015-Jan-26 09:13S 36°51' E 174°47'4 6.2
2015-Jan-26 08:33S 36°47' E 174°48'2 2.3
2015-Jan-26 07:33S 36°45' E 174°50'6 4.8
2015-Jan-26 06:14S 36°51' E 174°47'5 7.8
2015-Jan-26 05:33S 36°46' E 174°49'5 0.4
2015-Jan-25 16:23S 36°51' E 174°47'0 0.0
2015-Jan-25 15:30S 36°51' E 174°47'5 5.2
2015-Jan-25 14:33S 36°46' E 174°49'5 4.7
2015-Jan-25 13:32S 36°51' E 174°47'0 0.0
2015-Jan-25 12:31S 36°51' E 174°47'0 0.0
2015-Jan-25 11:12S 36°51' E 174°47'0 0.0
2015-Jan-25 10:31S 36°51' E 174°47'0 0.0
2015-Jan-25 09:23S 36°51' E 174°47'0 0.4
2015-Jan-25 08:33S 36°50' E 174°47'0 0.3
2015-Jan-25 07:18S 36°51' E 174°47'3 1.9
2015-Jan-25 05:34S 36°48' E 174°49'3 3.1
2015-Jan-25 04:29S 36°51' E 174°47'0 0.0
2015-Jan-25 03:28S 36°51' E 174°47'0 0.0
2015-Jan-25 02:34S 36°51' E 174°47'0 0.0
2015-Jan-25 01:34S 36°51' E 174°47'0 0.3
2015-Jan-25 00:16S 36°50' E 174°47'0 0.4
2015-Jan-24 23:10S 36°51' E 174°47'0 0.0
2015-Jan-24 22:31S 36°51' E 174°47'0 0.0
2015-Jan-24 21:33S 36°51' E 174°47'0 0.3
2015-Jan-24 20:33S 36°50' E 174°47'4 1.8
2015-Jan-24 18:33S 36°47' E 174°48'4 1.7
2015-Jan-24 16:21S 36°51' E 174°48'1 0.1
2015-Jan-24 08:33S 36°50' E 174°49'5 5.6
2015-Jan-24 07:34S 36°45' E 174°52'6 6.3
2015-Jan-24 06:33S 36°50' E 174°47'0 0.3
2015-Jan-24 05:09S 36°51' E 174°47'3 5.0
2015-Jan-24 04:33S 36°49' E 174°50'3 2.8
2015-Jan-24 03:33S 36°46' E 174°49'5 4.5
2015-Jan-24 02:27S 36°51' E 174°48'6 6.2
2015-Jan-24 01:33S 36°45' E 174°50'6 4.9
2015-Jan-24 00:23S 36°51' E 174°47'0 0.0
2015-Jan-23 23:18S 36°51' E 174°47'1 0.9
2015-Jan-23 22:33S 36°50' E 174°46'1 0.6
2015-Jan-23 21:27S 36°51' E 174°47'0 0.0
2015-Jan-23 18:13S 36°51' E 174°47'3 4.8
2015-Jan-23 17:34S 36°48' E 174°49'1 0.9
2015-Jan-23 16:34S 36°47' E 174°49'4 3.9
2015-Jan-23 15:33S 36°51' E 174°47'1 0.7
2015-Jan-23 13:33S 36°50' E 174°49'1 1.3
2015-Jan-23 12:29S 36°51' E 174°47'0 0.0
2015-Jan-23 11:33S 36°51' E 174°47'0 0.0
2015-Jan-23 10:33S 36°51' E 174°47'0 0.0
2015-Jan-23 09:32S 36°51' E 174°47'0 0.0
2015-Jan-23 08:33S 36°51' E 174°47'3 3.2
2015-Jan-23 07:34S 36°48' E 174°49'3 0.5
2015-Jan-23 01:12S 36°51' E 174°47'0 0.0
2015-Jan-23 00:32S 36°51' E 174°47'0 0.0
2015-Jan-22 23:31S 36°51' E 174°47'0 0.0
2015-Jan-22 22:33S 36°51' E 174°47'0 0.0
2015-Jan-22 21:33S 36°51' E 174°47'2 2.1
2015-Jan-22 20:33S 36°49' E 174°49'2 1.6
2015-Jan-22 19:14S 36°51' E 174°47'0 0.0
2015-Jan-22 18:34S 36°51' E 174°47'0 0.0
2015-Jan-22 17:17S 36°51' E 174°47'1 1.8
2015-Jan-22 16:32S 36°50' E 174°49'6 1.3
2015-Jan-22 11:33S 36°44' E 174°51'7 7.2
2015-Jan-22 10:33S 36°51' E 174°47'5 4.7
2015-Jan-22 09:33S 36°46' E 174°49'5 4.7
2015-Jan-22 08:33S 36°51' E 174°47'0 0.0
2015-Jan-22 07:33S 36°51' E 174°47'0 0.2
2015-Jan-22 06:33S 36°50' E 174°47'2 2.4
2015-Jan-22 05:33S 36°49' E 174°49'3 0.7
2015-Jan-22 02:05S 36°51' E 174°47'3 5.9
2015-Jan-22 01:33S 36°48' E 174°49'3 3.0
2015-Jan-22 00:32S 36°51' E 174°47'0 0.0
2015-Jan-21 23:27S 36°51' E 174°47'1 2.3
2015-Jan-21 22:50S 36°50' E 174°49'123.1
2015-Jan-21 22:46S 36°49' E 174°49'522.8
2015-Jan-21 22:34S 36°44' E 174°50'7 7.2
2015-Jan-21 21:33S 36°51' E 174°47'0 0.0
2015-Jan-21 16:32S 36°51' E 174°47'0 0.0
2015-Jan-21 15:30S 36°51' E 174°47'0 0.0
2015-Jan-21 14:22S 36°51' E 174°47'0 0.0
2015-Jan-21 13:33S 36°51' E 174°47'0 0.0
2015-Jan-21 12:22S 36°51' E 174°47'4 5.2
2015-Jan-21 11:34S 36°47' E 174°49'4 3.6
2015-Jan-21 10:24S 36°51' E 174°47'0 0.0
2015-Jan-21 08:27S 36°51' E 174°47'3 3.6
2015-Jan-21 07:33S 36°48' E 174°49'2 0.2
2015-Jan-20 23:31S 36°50' E 174°49'1 0.9
2015-Jan-20 22:12S 36°51' E 174°48'5 7.6
2015-Jan-20 21:34S 36°46' E 174°49'5 4.6
2015-Jan-20 20:30S 36°51' E 174°47'  

Dump ship's entire track history